createdAt,value
2022-10-25T00:01:01.908Z,1.30
2022-10-25T00:03:29.408Z,2.22
2022-10-25T00:05:56.913Z,2.65
2022-10-25T00:08:24.364Z,1.48
2022-10-25T00:10:51.804Z,0.85
2022-10-25T00:13:19.256Z,1.88
2022-10-25T00:15:46.698Z,1.67
2022-10-25T00:18:15.482Z,1.42
2022-10-25T00:20:42.911Z,2.38
2022-10-25T00:23:10.401Z,2.22
2022-10-25T00:25:37.843Z,2.38
2022-10-25T00:28:05.497Z,1.52
2022-10-25T00:30:33.006Z,2.40
2022-10-25T00:33:00.481Z,1.70
2022-10-25T00:35:29.689Z,2.85
2022-10-25T00:37:57.130Z,2.93
2022-10-25T00:40:24.557Z,2.67
2022-10-25T00:42:51.989Z,1.00
2022-10-25T00:45:21.731Z,2.88
2022-10-25T00:47:52.187Z,2.42
2022-10-25T00:50:28.830Z,2.20
2022-10-25T00:52:58.880Z,1.65
2022-10-25T00:57:55.546Z,2.55
2022-10-25T01:00:23.040Z,1.02
2022-10-25T01:02:50.531Z,2.88
2022-10-25T01:05:18.101Z,1.52
2022-10-25T01:07:45.824Z,1.83
2022-10-25T01:10:14.778Z,1.42
2022-10-25T01:12:42.209Z,2.92
2022-10-25T01:15:10.514Z,1.98
2022-10-25T01:17:42.749Z,1.55
2022-10-25T01:20:32.330Z,2.00
2022-10-25T01:23:01.719Z,1.95
2022-10-25T01:25:45.604Z,2.13
2022-10-25T01:28:13.855Z,2.85
2022-10-25T01:31:00.619Z,2.95
2022-10-25T01:33:28.912Z,2.53
2022-10-25T01:36:00.070Z,1.40
2022-10-25T01:38:34.239Z,2.42
2022-10-25T01:41:07.928Z,1.60
2022-10-25T01:43:39.283Z,3.53
2022-10-25T01:46:11.858Z,1.77
2022-10-25T01:48:40.943Z,2.22
2022-10-25T01:51:10.814Z,2.72
2022-10-25T01:53:46.305Z,2.05
2022-10-25T01:56:16.659Z,1.77
2022-10-25T01:58:46.802Z,2.88
2022-10-25T02:03:49.067Z,2.72
2022-10-25T02:06:20.393Z,2.05
2022-10-25T02:08:49.695Z,1.27
2022-10-25T02:11:20.412Z,2.50
2022-10-25T02:13:54.249Z,2.28
2022-10-25T02:16:23.526Z,1.55
2022-10-25T02:18:53.110Z,2.13
2022-10-25T02:21:20.562Z,1.92
2022-10-25T02:23:48.014Z,1.30
2022-10-25T02:26:15.452Z,1.95
2022-10-25T02:28:42.909Z,2.33
2022-10-25T02:31:11.454Z,1.63
2022-10-25T02:33:40.217Z,2.60
2022-10-25T02:36:09.528Z,2.53
2022-10-25T02:38:36.985Z,2.63
2022-10-25T02:41:04.644Z,6.15
2022-10-25T02:43:32.173Z,2.05
2022-10-25T02:45:59.693Z,3.95
2022-10-25T02:48:27.188Z,2.15
2022-10-25T02:50:55.979Z,1.63
2022-10-25T02:53:23.418Z,3.15
2022-10-25T02:55:59.574Z,2.05
2022-10-25T02:58:27.046Z,2.35
2022-10-25T03:00:54.633Z,2.30
2022-10-25T03:03:22.190Z,2.58
2022-10-25T03:05:49.654Z,2.20
2022-10-25T03:08:18.546Z,2.47
2022-10-25T03:10:46.047Z,4.50
2022-10-25T03:13:13.518Z,2.92
2022-10-25T03:15:40.984Z,2.75
2022-10-25T03:18:08.432Z,3.10
2022-10-25T03:20:35.911Z,1.30
2022-10-25T03:23:03.352Z,2.40
2022-10-25T03:25:32.163Z,2.22
2022-10-25T03:28:00.271Z,1.42
2022-10-25T03:30:27.796Z,2.95
2022-10-25T03:32:55.241Z,3.28
2022-10-25T03:35:22.696Z,1.85
2022-10-25T03:37:50.228Z,2.85
2022-10-25T03:40:17.848Z,3.17
2022-10-25T03:42:46.648Z,3.13
2022-10-25T03:45:14.135Z,2.25
2022-10-25T03:47:41.580Z,3.50
2022-10-25T03:50:09.277Z,2.40
2022-10-25T03:52:36.709Z,3.05
2022-10-25T03:55:04.291Z,2.65
2022-10-25T03:57:31.728Z,2.67
2022-10-25T04:00:00.581Z,3.03
2022-10-25T04:02:28.154Z,5.30
2022-10-25T04:04:55.624Z,4.00
2022-10-25T04:07:23.066Z,2.35
2022-10-25T04:09:50.505Z,5.25
2022-10-25T04:12:17.944Z,3.67
2022-10-25T04:14:45.365Z,3.05
2022-10-25T04:17:14.128Z,3.08
2022-10-25T04:19:41.570Z,1.95
2022-10-25T04:22:09.014Z,2.38
2022-10-25T04:24:36.508Z,2.55
2022-10-25T04:27:04.112Z,2.83
2022-10-25T04:29:31.558Z,1.98
2022-10-25T04:31:59.155Z,2.80
2022-10-25T04:34:27.944Z,2.17
2022-10-25T04:36:55.400Z,2.75
2022-10-25T04:39:22.916Z,2.13
2022-10-25T04:41:50.353Z,2.47
2022-10-25T04:44:18.043Z,3.88
2022-10-25T04:46:48.581Z,3.35
2022-10-25T04:49:17.163Z,2.58
2022-10-25T04:51:46.004Z,1.90
2022-10-25T04:54:13.718Z,1.50
2022-10-25T04:56:41.504Z,5.50
2022-10-25T04:59:09.676Z,3.03
2022-10-25T05:01:37.249Z,3.65
2022-10-25T05:04:05.023Z,2.85
2022-10-25T05:06:32.537Z,3.72
2022-10-25T05:09:01.306Z,2.85
2022-10-25T05:11:28.794Z,2.75
2022-10-25T05:13:56.262Z,3.15
2022-10-25T05:16:24.337Z,4.47
2022-10-25T05:18:54.236Z,3.90
2022-10-25T05:21:21.767Z,2.50
2022-10-25T05:23:49.274Z,3.15
2022-10-25T05:26:19.391Z,2.17
2022-10-25T05:31:15.681Z,2.50
2022-10-25T05:33:44.879Z,4.93
2022-10-25T05:36:12.494Z,3.20
2022-10-25T05:38:40.013Z,3.53
2022-10-25T05:41:07.558Z,2.33
2022-10-25T05:43:36.352Z,3.00
2022-10-25T05:46:05.066Z,2.15
2022-10-25T05:48:32.658Z,1.92
2022-10-25T05:51:28.657Z,2.15
2022-10-25T05:53:57.840Z,6.30
2022-10-25T05:56:26.315Z,2.95
2022-10-25T05:58:56.183Z,4.72
2022-10-25T06:01:24.128Z,3.47
2022-10-25T06:03:52.098Z,3.60
2022-10-25T06:06:19.684Z,1.85
2022-10-25T06:08:47.258Z,3.20
2022-10-25T06:11:15.850Z,8.65
2022-10-25T06:13:43.340Z,7.15
2022-10-25T06:16:12.940Z,6.30
2022-10-25T06:18:40.391Z,6.50
2022-10-25T06:21:09.367Z,5.65
2022-10-25T06:23:37.011Z,6.72
2022-10-25T06:26:06.004Z,7.03
2022-10-25T06:28:33.511Z,10.05
2022-10-25T06:31:02.369Z,5.35
2022-10-25T06:33:31.491Z,5.40
2022-10-25T06:35:59.105Z,3.90
2022-10-25T06:38:26.966Z,10.18
2022-10-25T06:40:59.214Z,5.05
2022-10-25T06:43:26.718Z,10.55
2022-10-25T06:45:54.212Z,4.32
2022-10-25T06:48:21.677Z,5.90
2022-10-25T06:50:52.201Z,10.10
2022-10-25T06:53:19.761Z,7.93
2022-10-25T06:55:49.413Z,6.45
2022-10-25T06:58:16.848Z,9.02
2022-10-25T07:00:46.093Z,9.55
2022-10-25T07:03:16.334Z,14.88
2022-10-25T07:05:43.773Z,11.35
2022-10-25T07:08:12.527Z,10.77
2022-10-25T07:10:40.051Z,10.65
2022-10-25T07:13:07.482Z,10.85
2022-10-25T07:15:37.416Z,15.60
2022-10-25T07:18:07.378Z,11.73
2022-10-25T07:20:34.823Z,11.10
2022-10-25T07:23:05.371Z,10.10
2022-10-25T07:25:36.755Z,7.40
2022-10-25T07:28:04.288Z,10.38
2022-10-25T07:30:32.252Z,9.60
2022-10-25T07:32:59.669Z,10.48
2022-10-25T07:35:27.090Z,14.07
2022-10-25T07:37:54.531Z,17.48
2022-10-25T07:40:21.998Z,12.50
2022-10-25T07:42:51.459Z,6.28
2022-10-25T07:45:22.292Z,9.90
2022-10-25T07:47:52.153Z,9.38
2022-10-25T07:50:20.469Z,12.75
2022-10-25T07:52:47.901Z,14.15
2022-10-25T07:55:15.504Z,12.07
2022-10-25T07:57:43.094Z,14.43
2022-10-25T08:00:13.010Z,18.05
2022-10-25T08:02:40.889Z,21.00
2022-10-25T08:05:09.347Z,21.67
2022-10-25T08:07:36.826Z,19.58
2022-10-25T08:10:04.574Z,17.63
2022-10-25T08:12:32.027Z,14.40
2022-10-25T08:14:59.475Z,19.45
2022-10-25T08:17:28.224Z,11.00
2022-10-25T08:19:56.297Z,11.20
2022-10-25T08:22:23.718Z,11.40
2022-10-25T08:24:51.181Z,14.05
2022-10-25T08:27:18.629Z,18.40
2022-10-25T08:29:46.112Z,9.88
2022-10-25T08:32:13.565Z,14.18
2022-10-25T08:34:42.387Z,9.25
2022-10-25T08:37:11.387Z,10.55
2022-10-25T08:39:38.876Z,15.85
2022-10-25T08:42:06.475Z,12.63
2022-10-25T08:44:39.126Z,12.95
2022-10-25T08:47:08.431Z,9.00
2022-10-25T08:49:40.964Z,15.68
2022-10-25T08:52:16.709Z,9.77
2022-10-25T08:54:45.148Z,13.32
2022-10-25T08:57:16.491Z,14.25
2022-10-25T08:59:45.025Z,8.90
2022-10-25T09:02:17.699Z,14.63
2022-10-25T09:04:45.215Z,14.68
2022-10-25T09:07:20.679Z,14.10
2022-10-25T09:09:50.498Z,15.38
2022-10-25T09:12:20.854Z,11.52
2022-10-25T09:14:50.156Z,11.75
2022-10-25T09:17:19.274Z,12.38
2022-10-25T09:19:55.229Z,14.75
2022-10-25T09:22:26.569Z,13.30
2022-10-25T09:24:57.775Z,10.32
2022-10-25T09:27:27.724Z,12.52
2022-10-25T09:29:56.235Z,11.98
2022-10-25T09:32:25.002Z,11.73
2022-10-25T09:34:52.457Z,16.85
2022-10-25T09:37:23.445Z,9.23
2022-10-25T09:39:53.527Z,9.30
2022-10-25T09:44:50.857Z,9.65
2022-10-25T09:47:29.635Z,9.77
2022-10-25T09:49:59.003Z,11.18
2022-10-25T09:52:29.991Z,8.93
2022-10-25T09:55:06.734Z,13.38
2022-10-25T09:57:34.191Z,14.02
2022-10-25T10:00:01.625Z,11.23
2022-10-25T10:02:29.179Z,8.68
2022-10-25T10:04:56.795Z,9.85
2022-10-25T10:07:25.857Z,8.27
2022-10-25T10:09:54.115Z,11.95
2022-10-25T10:12:24.614Z,59.28
2022-10-25T10:14:56.070Z,60.90
2022-10-25T10:17:23.504Z,31.30
2022-10-25T10:20:08.592Z,33.78
2022-10-25T10:22:37.378Z,33.20
2022-10-25T10:25:05.773Z,22.25
2022-10-25T10:29:57.650Z,22.20
2022-10-25T10:32:26.715Z,29.83
2022-10-25T10:34:55.135Z,29.08
2022-10-25T10:37:23.776Z,31.83
2022-10-25T10:39:52.994Z,28.20
2022-10-25T10:42:21.321Z,19.10
2022-10-25T10:45:04.887Z,19.10
2022-10-25T10:47:34.284Z,23.33
2022-10-25T10:50:01.973Z,28.05
2022-10-25T10:52:31.118Z,28.38
2022-10-25T10:54:58.748Z,22.40
2022-10-25T10:57:29.617Z,21.48
2022-10-25T10:59:57.308Z,19.85
2022-10-25T11:02:29.701Z,19.85
2022-10-25T11:04:57.890Z,19.92
2022-10-25T11:07:28.577Z,19.50
2022-10-25T11:10:14.051Z,21.75
2022-10-25T11:12:41.535Z,20.73
2022-10-25T11:15:11.640Z,20.10
2022-10-25T11:17:40.758Z,18.23
2022-10-25T11:20:13.759Z,21.17
2022-10-25T11:25:20.727Z,18.20
2022-10-25T11:27:54.716Z,16.85
2022-10-25T11:30:22.681Z,14.20
2022-10-25T11:33:18.372Z,14.48
2022-10-25T11:35:50.189Z,15.73
2022-10-25T11:38:21.074Z,14.07
2022-10-25T11:40:55.783Z,14.98
2022-10-25T11:43:32.135Z,12.60
2022-10-25T11:46:00.257Z,17.13
2022-10-25T11:48:36.359Z,16.27
2022-10-25T11:51:07.460Z,36.92
2022-10-25T11:53:50.842Z,37.28
2022-10-25T11:56:21.902Z,40.00
2022-10-25T11:58:52.917Z,33.13
2022-10-25T12:01:27.682Z,32.33
2022-10-25T12:04:09.814Z,57.33
2022-10-25T12:06:39.454Z,48.38
2022-10-25T12:09:08.588Z,56.10
2022-10-25T12:11:38.946Z,58.87
2022-10-25T12:14:08.331Z,59.83
2022-10-25T12:16:36.495Z,57.13
2022-10-25T12:19:08.954Z,46.40
2022-10-25T12:21:41.373Z,43.58
2022-10-25T12:24:12.412Z,50.05
2022-10-25T12:26:40.632Z,39.03
2022-10-25T12:29:12.969Z,43.28
2022-10-25T12:31:43.334Z,47.92
2022-10-25T12:34:13.735Z,27.65
2022-10-25T12:36:41.726Z,33.08
2022-10-25T12:39:13.697Z,34.70
2022-10-25T12:41:41.115Z,34.55
2022-10-25T12:44:25.256Z,35.97
2022-10-25T12:47:06.192Z,30.40
2022-10-25T12:49:54.973Z,30.83
2022-10-25T12:52:29.499Z,37.63
2022-10-25T12:55:04.239Z,29.70
2022-10-25T12:57:34.382Z,32.63
2022-10-25T13:02:47.994Z,26.42
2022-10-25T13:05:44.966Z,29.15
2022-10-25T13:08:12.425Z,25.20
2022-10-25T13:10:42.863Z,28.48
2022-10-25T13:13:17.329Z,25.95
2022-10-25T13:15:46.915Z,22.42
2022-10-25T13:18:26.884Z,26.02
2022-10-25T13:20:55.712Z,22.27
2022-10-25T13:24:00.386Z,23.10
2022-10-25T13:26:34.876Z,15.68
2022-10-25T13:29:03.877Z,19.90
2022-10-25T13:31:47.993Z,15.15
2022-10-25T13:34:31.326Z,19.15
2022-10-25T13:37:00.379Z,15.80
2022-10-25T13:39:31.789Z,17.25
2022-10-25T13:42:02.454Z,15.23
2022-10-25T13:44:29.893Z,21.05
2022-10-25T13:46:57.346Z,16.90
2022-10-25T13:49:31.475Z,17.50
2022-10-25T13:52:01.039Z,16.75
2022-10-25T13:54:32.256Z,16.85
2022-10-25T13:56:59.688Z,18.77
2022-10-25T13:59:35.781Z,16.25
2022-10-25T14:02:09.432Z,16.58
2022-10-25T14:04:39.919Z,15.43
2022-10-25T14:07:47.967Z,13.98
2022-10-25T14:10:20.852Z,15.40
2022-10-25T14:12:49.694Z,12.88
2022-10-25T14:15:19.760Z,11.75
2022-10-25T14:17:47.212Z,13.63
2022-10-25T14:20:22.304Z,12.65
2022-10-25T14:22:53.230Z,12.70
2022-10-25T14:25:21.606Z,12.95
2022-10-25T14:27:49.109Z,16.60
2022-10-25T14:30:24.140Z,15.07
2022-10-25T14:32:52.377Z,13.05
2022-10-25T14:35:19.879Z,14.23
2022-10-25T14:37:47.316Z,13.13
2022-10-25T14:40:21.325Z,10.13
2022-10-25T14:42:49.098Z,12.13
2022-10-25T14:45:20.360Z,14.07
2022-10-25T14:47:47.852Z,11.95
2022-10-25T14:50:15.601Z,15.95
2022-10-25T14:52:44.664Z,11.82
2022-10-25T14:55:19.963Z,11.97
2022-10-25T14:57:47.712Z,11.50
2022-10-25T15:00:19.079Z,10.27
2022-10-25T15:02:46.939Z,15.25
2022-10-25T15:05:18.535Z,13.48
2022-10-25T15:07:46.872Z,13.25
2022-10-25T15:10:35.633Z,11.05
2022-10-25T15:13:03.684Z,10.27
2022-10-25T15:15:34.895Z,12.13
2022-10-25T15:18:02.416Z,11.48
2022-10-25T15:20:30.601Z,11.77
2022-10-25T15:23:05.360Z,10.93
2022-10-25T15:25:34.933Z,11.02
2022-10-25T15:28:10.091Z,11.02
2022-10-25T15:30:38.379Z,10.52
2022-10-25T15:33:06.651Z,9.70
2022-10-25T15:35:34.122Z,7.63
2022-10-25T15:38:01.545Z,8.63
2022-10-25T15:40:29.028Z,11.57
2022-10-25T15:42:57.786Z,10.35
2022-10-25T15:45:25.235Z,12.13
2022-10-25T15:47:54.993Z,12.73
2022-10-25T15:50:22.956Z,8.43
2022-10-25T15:52:50.702Z,9.27
2022-10-25T15:55:19.479Z,9.57
2022-10-25T15:57:47.006Z,10.73
2022-10-25T16:00:16.826Z,8.90
2022-10-25T16:02:44.339Z,10.45
2022-10-25T16:05:16.762Z,9.45
2022-10-25T16:07:44.246Z,10.45
2022-10-25T16:10:11.710Z,9.35
2022-10-25T16:12:39.161Z,10.60
2022-10-25T16:15:07.868Z,11.75
2022-10-25T16:17:36.645Z,9.95
2022-10-25T16:20:04.413Z,9.80
2022-10-25T16:22:32.086Z,9.65
2022-10-25T16:24:59.522Z,9.63
2022-10-25T16:27:26.968Z,8.82
2022-10-25T16:29:54.422Z,10.40
2022-10-25T16:32:21.861Z,9.65
2022-10-25T16:34:50.639Z,6.93
2022-10-25T16:37:18.622Z,8.10
2022-10-25T16:39:46.140Z,10.65
2022-10-25T16:42:29.643Z,8.15
2022-10-25T16:44:57.181Z,9.30
2022-10-25T16:47:24.693Z,8.77
2022-10-25T16:49:53.484Z,8.05
2022-10-25T16:52:21.002Z,8.80
2022-10-25T16:54:48.586Z,9.32
2022-10-25T16:57:16.261Z,6.05
2022-10-25T16:59:43.753Z,8.52
2022-10-25T17:02:16.216Z,8.27
2022-10-25T17:04:43.776Z,7.70
2022-10-25T17:07:12.571Z,7.30
2022-10-25T17:09:40.061Z,8.55
2022-10-25T17:12:07.701Z,11.68
2022-10-25T17:14:35.455Z,8.40
2022-10-25T17:17:03.405Z,8.52
2022-10-25T17:19:30.938Z,7.30
2022-10-25T17:21:58.432Z,6.95
2022-10-25T17:24:27.221Z,8.70
2022-10-25T17:26:54.721Z,6.60
2022-10-25T17:29:22.187Z,5.20
2022-10-25T17:31:49.645Z,8.38
2022-10-25T17:34:17.563Z,7.70
2022-10-25T17:36:45.069Z,8.65
2022-10-25T17:39:12.554Z,6.55
2022-10-25T17:41:41.342Z,7.95
2022-10-25T17:44:10.573Z,6.25
2022-10-25T17:46:38.068Z,6.13
2022-10-25T17:49:05.766Z,6.72
2022-10-25T17:51:33.531Z,6.97
2022-10-25T17:54:01.004Z,9.73
2022-10-25T17:56:28.819Z,7.85
2022-10-25T17:58:58.212Z,6.45
2022-10-25T18:01:26.677Z,5.50
2022-10-25T18:03:54.965Z,7.35
2022-10-25T18:08:56.342Z,6.50
2022-10-25T18:11:24.549Z,7.05
2022-10-25T18:13:53.392Z,7.50
2022-10-25T18:16:25.672Z,5.40
2022-10-25T18:18:53.148Z,6.25
2022-10-25T18:21:20.597Z,5.88
2022-10-25T18:23:48.034Z,6.43
2022-10-25T18:26:16.596Z,6.43
2022-10-25T18:28:44.098Z,7.97
2022-10-25T18:31:12.839Z,5.85
2022-10-25T18:33:42.335Z,7.78
2022-10-25T18:36:11.472Z,6.10
2022-10-25T18:38:38.937Z,6.30
2022-10-25T18:41:07.101Z,10.95
2022-10-25T18:43:34.565Z,6.43
2022-10-25T18:46:02.139Z,6.07
2022-10-25T18:48:29.623Z,8.68
2022-10-25T18:51:03.016Z,6.90
2022-10-25T18:53:30.728Z,6.80
2022-10-25T18:55:58.354Z,6.85
2022-10-25T18:58:25.798Z,5.72
2022-10-25T19:00:53.325Z,7.10
2022-10-25T19:03:20.829Z,6.63
2022-10-25T19:05:48.277Z,5.15
2022-10-25T19:08:17.138Z,8.18
2022-10-25T19:10:44.608Z,6.68
2022-10-25T19:13:18.778Z,6.32
2022-10-25T19:15:46.650Z,5.55
2022-10-25T19:18:14.798Z,5.53
2022-10-25T19:20:45.535Z,5.28
2022-10-25T19:23:14.036Z,7.00
2022-10-25T19:25:42.850Z,5.25
2022-10-25T19:28:10.329Z,6.07
2022-10-25T19:30:37.832Z,5.88
2022-10-25T19:33:05.297Z,6.22
2022-10-25T19:35:32.782Z,11.82
2022-10-25T19:38:00.234Z,6.20
2022-10-25T19:40:27.740Z,5.35
2022-10-25T19:42:56.545Z,7.13
2022-10-25T19:45:24.488Z,5.55
2022-10-25T19:47:55.870Z,6.28
2022-10-25T19:50:23.863Z,4.70
2022-10-25T19:52:51.389Z,5.45
2022-10-25T19:55:18.932Z,4.88
2022-10-25T19:57:46.848Z,6.88
2022-10-25T20:00:16.958Z,4.78
2022-10-25T20:02:44.409Z,6.90
2022-10-25T20:07:44.296Z,6.03
2022-10-25T20:10:12.939Z,6.78
2022-10-25T20:12:40.392Z,5.95
2022-10-25T20:15:08.637Z,6.45
2022-10-25T20:17:37.642Z,7.05
2022-10-25T20:20:06.077Z,6.50
2022-10-25T20:22:37.770Z,5.97
2022-10-25T20:25:06.874Z,5.57
2022-10-25T20:27:34.382Z,6.43
2022-10-25T20:30:01.841Z,6.70
2022-10-25T20:32:29.292Z,5.57
2022-10-25T20:34:58.142Z,6.50
2022-10-25T20:37:25.589Z,5.63
2022-10-25T20:39:53.041Z,9.38
2022-10-25T20:42:20.494Z,4.93
2022-10-25T20:44:47.986Z,4.90
2022-10-25T20:47:15.476Z,8.90
2022-10-25T20:49:42.925Z,6.68
2022-10-25T20:52:11.688Z,5.95
2022-10-25T20:54:39.302Z,6.70
2022-10-25T20:57:08.481Z,5.75
2022-10-25T20:59:35.985Z,5.10
2022-10-25T21:02:03.526Z,5.18
2022-10-25T21:04:49.461Z,7.53
2022-10-25T21:07:19.871Z,8.05
2022-10-25T21:09:49.490Z,5.60
2022-10-25T21:12:17.151Z,6.38
2022-10-25T21:14:44.677Z,7.95
2022-10-25T21:17:12.268Z,6.10
2022-10-25T21:19:39.750Z,8.23
2022-10-25T21:22:07.187Z,6.63
2022-10-25T21:27:09.856Z,7.45
2022-10-25T21:29:37.339Z,6.50
2022-10-25T21:32:04.989Z,7.00
2022-10-25T21:34:32.563Z,6.10
2022-10-25T21:37:00.032Z,9.15
2022-10-25T21:39:27.574Z,6.13
2022-10-25T21:41:56.349Z,7.10
2022-10-25T21:44:23.836Z,6.95
2022-10-25T21:46:51.256Z,9.05
2022-10-25T21:49:18.777Z,7.72
2022-10-25T21:51:46.235Z,7.05
2022-10-25T21:54:13.901Z,7.47
2022-10-25T21:56:41.371Z,7.97
2022-10-25T21:59:10.162Z,8.88
2022-10-25T22:01:37.833Z,8.40
2022-10-25T22:04:05.671Z,6.75
2022-10-25T22:06:33.161Z,6.70
2022-10-25T22:09:00.644Z,6.90
2022-10-25T22:11:28.924Z,6.82
2022-10-25T22:13:57.058Z,7.45
2022-10-25T22:16:26.078Z,6.53
2022-10-25T22:18:54.735Z,8.82
2022-10-25T22:21:22.401Z,6.13
2022-10-25T22:23:49.966Z,5.97
2022-10-25T22:26:18.398Z,6.30
2022-10-25T22:28:45.867Z,5.47
2022-10-25T22:31:14.726Z,6.68
2022-10-25T22:33:43.712Z,8.90
2022-10-25T22:36:13.169Z,6.57
2022-10-25T22:38:40.684Z,5.80
2022-10-25T22:41:08.979Z,6.05
2022-10-25T22:43:36.567Z,6.53
2022-10-25T22:46:04.354Z,6.05
2022-10-25T22:48:32.209Z,6.78
2022-10-25T22:51:00.989Z,6.50
2022-10-25T22:53:28.484Z,6.15
2022-10-25T22:55:56.922Z,8.25
2022-10-25T22:58:24.603Z,8.15
2022-10-25T23:00:52.261Z,6.22
2022-10-25T23:03:19.794Z,5.90
2022-10-25T23:05:47.249Z,6.35
2022-10-25T23:08:16.218Z,5.78
2022-10-25T23:10:43.713Z,6.30
2022-10-25T23:13:11.145Z,5.30
2022-10-25T23:15:38.603Z,7.40
2022-10-25T23:18:06.127Z,5.68
2022-10-25T23:20:33.589Z,5.60
2022-10-25T23:23:01.030Z,5.38
2022-10-25T23:25:29.821Z,5.07
2022-10-25T23:27:57.230Z,5.10
2022-10-25T23:30:26.774Z,4.97
2022-10-25T23:32:54.189Z,4.47
2022-10-25T23:35:21.633Z,5.15
2022-10-25T23:37:49.340Z,6.03
2022-10-25T23:40:17.207Z,5.20
2022-10-25T23:42:45.966Z,5.18
2022-10-25T23:45:13.473Z,4.68
2022-10-25T23:47:41.018Z,4.78
2022-10-25T23:50:09.316Z,5.18
2022-10-25T23:52:36.761Z,4.72
2022-10-25T23:55:04.541Z,4.55
2022-10-25T23:57:31.999Z,4.28
